首页
METAR-TAF:

METAR-TAF

机场 :

麥克坦-宿霧國際機場

宿霧, 菲律宾

纬度: 10-18-48N, 经度: 123-58-58E, 海拔: 23米

当前天气观测

该预报发布于1小时和6分钟前的04:00 UTC
风速2节,风向
温度 30°C
湿度 75%
气压 1009 hPa
能见度10公里或以上
散云层高于2000英尺

METAR: RPVM 150400Z 18002KT 9999 SCT020 30/25 Q1009 NOSIG RMK A2980

时间: 13:06 (05:06 UTC)

预报

该预报发布于6小时和6分钟前的23:00 UTC
预报有效从15日的 00点(UTC)到 16日的 06点(UTC)
风速7节,风向西南
能见度10公里或以上
少量云层高于2000英尺
短暂存在
从 15日的 00点(UTC)到 15日的 06点(UTC)
少量云层高于1800英尺, 积雨云.
阴天层高于9000英尺
小阵雨
短暂存在
从 15日的 06点(UTC)到 15日的 12点(UTC)
散云层高于1800英尺, 积雨云.
阴天层高于9000英尺
雷暴, 小雨,

TAF: RPVM 142300Z 1500/1606 22007KT 9999 FEW020 TEMPO 1500/1506 -SHRA FEW018CB OVC090 TEMPO 1506/1512 -TSRA SCT018CB OVC090

超过4000个机场的气象观测和天气预报(METAR&TAF报告)。

可查询的气象台以黄色和红色小点在地图上表示。

将鼠标移到小点上方,可查看气象台名称。

然后点击查看天气观测和预报。

如需切换地图:点击带黑十字的绿色按钮放大地图;点击带横线的绿色按钮缩小地图;或者点击绿色箭头查看邻近地区的地图。


METAR-TAF: